Time;durP1;ratioP1;P1;durP2;ratioP2;P2;SDS_P1;SDS_P2;PMS_P1;PMS_P2;Temp;Humidity;BMP_temperature;BMP_pressure;BME280_temperature;BME280_humidity;BME280_pressure;Samples;Min_cycle;Max_cycle;Signal;HPM_P1;HPM_P2
2023/06/23 00:00:09;;;;;;;13.13;6.68;;;;;;;;;;5029671;28;20033;-71
2023/06/23 00:02:35;;;;;;;9.55;7.30;;;;;;;;;;5019237;28;20403;-72
2023/06/23 00:05:03;;;;;;;12.15;7.28;;;;;;;;;;5027564;28;20064;-71
2023/06/23 00:07:30;;;;;;;9.88;6.95;;;;;;;;;;5028236;28;20075;-71
2023/06/23 00:09:56;;;;;;;11.90;7.32;;;;;;;;;;5036947;28;20124;-71
2023/06/23 00:12:24;;;;;;;8.65;7.75;;;;;;;;;;5028738;28;20128;-71
2023/06/23 00:14:50;;;;;;;11.00;7.70;;;;;;;;;;5030585;28;20017;-71
2023/06/23 00:17:16;;;;;;;9.55;7.80;;;;;;;;;;5028388;28;20045;-71
2023/06/23 00:19:42;;;;;;;10.13;8.02;;;;;;;;;;5030778;28;20471;-71
2023/06/23 00:22:08;;;;;;;10.82;8.25;;;;;;;;;;5027608;28;20343;-72
2023/06/23 00:24:34;;;;;;;14.48;8.45;;;;;;;;;;5018088;28;20439;-72
2023/06/23 00:27:01;;;;;;;9.75;7.53;;;;;;;;;;5030691;28;20064;-71
2023/06/23 00:29:27;;;;;;;15.25;9.48;;;;;;;;;;5016958;28;20030;-72
2023/06/23 00:31:53;;;;;;;12.95;9.00;;;;;;;;;;5057729;28;20111;-72
2023/06/23 00:34:19;;;;;;;14.05;10.27;;;;;;;;;;5029413;28;20028;-71
2023/06/23 00:36:44;;;;;;;14.13;9.63;;;;;;;;;;5030402;28;20398;-71
2023/06/23 00:39:11;;;;;;;12.48;9.35;;;;;;;;;;5031085;28;20044;-71
2023/06/23 00:41:37;;;;;;;11.73;9.05;;;;;;;;;;5030365;28;20127;-71
2023/06/23 00:44:06;;;;;;;14.95;9.70;;;;;;;;;;5028880;28;20041;-71
2023/06/23 00:46:33;;;;;;;11.40;9.10;;;;;;;;;;5025923;28;20088;-71
2023/06/23 00:49:00;;;;;;;13.43;9.85;;;;;;;;;;5030677;28;20057;-71
2023/06/23 00:51:26;;;;;;;14.35;9.30;;;;;;;;;;5030518;28;20091;-71
2023/06/23 00:53:53;;;;;;;12.73;10.30;;;;;;;;;;5016065;28;20040;-71
2023/06/23 00:56:23;;;;;;;13.68;9.98;;;;;;;;;;5025820;28;20468;-72
2023/06/23 00:58:50;;;;;;;17.58;11.30;;;;;;;;;;5015188;28;20394;-72
2023/06/23 01:01:16;;;;;;;11.80;10.55;;;;;;;;;;5021534;28;20025;-68
2023/06/23 01:03:43;;;;;;;13.75;11.02;;;;;;;;;;5015920;28;20033;-71
2023/06/23 01:06:16;;;;;;;12.05;10.48;;;;;;;;;;5030090;28;20383;-71
2023/06/23 01:08:47;;;;;;;10.95;9.30;;;;;;;;;;5027163;28;20029;-71
2023/06/23 01:11:19;;;;;;;15.48;9.98;;;;;;;;;;5029842;28;20056;-71
2023/06/23 01:13:50;;;;;;;14.60;10.95;;;;;;;;;;5029813;28;20030;-71
2023/06/23 01:16:38;;;;;;;15.43;11.20;;;;;;;;;;5025400;28;20101;-71
2023/06/23 01:19:28;;;;;;;18.08;11.38;;;;;;;;;;5038898;28;20095;-71
2023/06/23 01:21:57;;;;;;;15.00;11.77;;;;;;;;;;5025772;28;20041;-71
2023/06/23 01:25:13;;;;;;;17.52;10.95;;;18.20;99.90;;;;;;5026309;28;20088;-70
2023/06/23 01:27:52;;;;;;;21.50;10.57;;;;;;;;;;5018653;28;20050;-71
2023/06/23 01:30:19;;;;;;;14.75;9.85;;;;;;;;;;5026817;28;20099;-71
2023/06/23 01:32:55;;;;;;;12.50;9.23;;;;;;;;;;5029559;28;20042;-71
2023/06/23 01:35:23;;;;;;;15.75;9.73;;;;;;;;;;5028378;28;20018;-71
2023/06/23 01:37:51;;;;;;;15.55;11.13;;;;;;;;;;5034504;28;20074;-71
2023/06/23 01:40:18;;;;;;;12.27;9.80;;;;;;;;;;5029683;28;20026;-72
2023/06/23 01:42:52;;;;;;;13.55;9.57;;;;;;;;;;5030571;28;20399;-71
2023/06/23 01:45:18;;;;;;;14.38;11.05;;;;;;;;;;5029763;28;20029;-71
2023/06/23 01:47:48;;;;;;;14.02;10.20;;;;;;;;;;5025680;28;20021;-71
2023/06/23 01:50:16;;;;;;;14.23;10.85;;;;;;;;;;5029181;28;20034;-71
2023/06/23 01:52:43;;;;;;;16.50;10.75;;;;;;;;;;5027379;28;20053;-72
2023/06/23 01:55:13;;;;;;;18.83;11.38;;;;;;;;;;5026849;28;20379;-72
2023/06/23 01:57:40;;;;;;;17.75;11.32;;;;;;;;;;5028200;28;20068;-71
2023/06/23 02:00:13;;;;;;;14.48;12.10;;;;;;;;;;5027338;28;20059;-72
2023/06/23 02:02:46;;;;;;;16.10;11.80;;;;;;;;;;5021341;28;20049;-71
2023/06/23 02:05:14;;;;;;;15.45;11.40;;;;;;;;;;5026705;28;20033;-71
2023/06/23 02:07:42;;;;;;;21.85;13.38;;;17.50;99.90;;;;;;5026699;28;20037;-71
2023/06/23 02:10:08;;;;;;;16.92;12.18;;;;;;;;;;5025805;28;20542;-71
2023/06/23 02:12:40;;;;;;;20.30;13.45;;;17.30;99.90;;;;;;5025616;28;20045;-71
2023/06/23 02:15:07;;;;;;;17.77;14.47;;;;;;;;;;5027941;28;20051;-72
2023/06/23 02:17:34;;;;;;;16.48;13.40;;;;;;;;;;5026573;28;20029;-71
2023/06/23 02:20:09;;;;;;;18.02;14.35;;;17.20;99.90;;;;;;5017642;28;20049;-71
2023/06/23 02:22:35;;;;;;;16.30;13.40;;;;;;;;;;5030895;28;20048;-71
2023/06/23 02:25:02;;;;;;;20.00;14.07;;;;;;;;;;5008268;28;20030;-71
2023/06/23 02:27:28;;;;;;;16.83;12.82;;;;;;;;;;5023726;28;20029;-70
2023/06/23 02:29:54;;;;;;;23.55;14.93;;;;;;;;;;5030424;28;20044;-71
2023/06/23 02:32:20;;;;;;;18.50;14.10;;;;;;;;;;5026842;28;20164;-71
2023/06/23 02:34:46;;;;;;;17.48;14.40;;;;;;;;;;5027092;28;20037;-71
2023/06/23 02:37:16;;;;;;;19.48;14.43;;;;;;;;;;5059860;28;20033;-71
2023/06/23 02:39:47;;;;;;;19.63;14.68;;;;;;;;;;5028978;28;20026;-71
2023/06/23 02:42:14;;;;;;;18.77;14.40;;;;;;;;;;5028832;28;20032;-71
2023/06/23 02:44:45;;;;;;;24.02;15.85;;;;;;;;;;5030182;28;20585;-71
2023/06/23 02:47:14;;;;;;;24.40;16.70;;;;;;;;;;5033806;28;20113;-71
2023/06/23 02:49:41;;;;;;;19.73;15.52;;;;;;;;;;5030130;28;20083;-71
2023/06/23 02:52:09;;;;;;;27.83;16.38;;;;;;;;;;5037502;28;20045;-71
2023/06/23 02:54:39;;;;;;;20.80;15.80;;;16.90;99.90;;;;;;5028732;28;20029;-71
2023/06/23 02:57:07;;;;;;;21.20;17.67;;;;;;;;;;5032676;28;20032;-71
2023/06/23 02:59:34;;;;;;;24.08;18.27;;;16.80;99.90;;;;;;5031659;28;20033;-71
2023/06/23 03:02:00;;;;;;;23.73;17.80;;;;;;;;;;5032507;28;20037;-71
2023/06/23 03:04:27;;;;;;;24.30;17.25;;;;;;;;;;5028923;28;20472;-72
2023/06/23 03:06:53;;;;;;;25.02;18.60;;;;;;;;;;5025838;28;20073;-71
2023/06/23 03:09:19;;;;;;;24.73;19.15;;;;;;;;;;5023912;28;20437;-72
2023/06/23 03:11:45;;;;;;;26.40;19.70;;;;;;;;;;5063261;28;20562;-71
2023/06/23 03:14:11;;;;;;;24.23;20.25;;;;;;;;;;5021846;28;20037;-71
2023/06/23 03:16:50;;;;;;;27.77;20.65;;;;;;;;;;5029117;28;20050;-73
2023/06/23 03:19:35;;;;;;;25.63;21.05;;;;;;;;;;5033283;28;20029;-73
2023/06/23 03:22:20;;;;;;;26.55;21.58;;;;;;;;;;5023009;28;20048;-71
2023/06/23 03:24:50;;;;;;;27.63;21.48;;;;;;;;;;5022781;28;20025;-78
2023/06/23 03:27:16;;;;;;;26.02;20.98;;;;;;;;;;5029766;28;20113;-78
2023/06/23 03:29:52;;;;;;;26.98;20.70;;;;;;;;;;5030000;28;20046;-76
2023/06/23 03:32:22;;;;;;;32.70;23.00;;;;;;;;;;5032597;28;20549;-78
2023/06/23 03:34:51;;;;;;;31.73;22.38;;;;;;;;;;5029561;28;20671;-76
2023/06/23 03:37:19;;;;;;;30.73;23.50;;;;;;;;;;5031303;28;20432;-75
2023/06/23 03:39:48;;;;;;;27.23;22.55;;;;;;;;;;5023190;28;20490;-74
2023/06/23 03:42:15;;;;;;;28.42;22.50;;;;;;;;;;5028404;28;20048;-71
2023/06/23 03:44:47;;;;;;;33.30;23.65;;;;;;;;;;5027917;28;20044;-75
2023/06/23 03:47:13;;;;;;;;;;;;;;;;;;5022409;28;20030;-72
2023/06/23 03:49:42;;;;;;;29.05;21.60;;;;;;;;;;5027132;28;19932;-74
2023/06/23 03:52:10;;;;;;;26.00;20.90;;;;;;;;;;5024584;28;20041;-74
2023/06/23 03:54:37;;;;;;;28.35;22.35;;;;;;;;;;5052577;28;20099;-73
2023/06/23 03:57:04;;;;;;;24.02;21.05;;;;;;;;;;5021171;28;20525;-71
2023/06/23 03:59:31;;;;;;;27.63;19.65;;;;;;;;;;5026127;28;20042;-71
2023/06/23 04:01:57;;;;;;;25.40;21.95;;;;;;;;;;5022766;28;20045;-72
2023/06/23 04:04:24;;;;;;;26.63;20.38;;;;;;;;;;5023492;28;20049;-71
2023/06/23 04:06:52;;;;;;;25.70;20.63;;;;;;;;;;5021657;28;20029;-71
2023/06/23 04:09:20;;;;;;;24.98;20.60;;;;;;;;;;5023050;28;20090;-75
2023/06/23 04:11:47;;;;;;;24.52;21.67;;;;;;;;;;5020785;28;20161;-70
2023/06/23 04:14:14;;;;;;;23.88;18.92;;;;;;;;;;5020477;28;20030;-70
2023/06/23 04:16:40;;;;;;;28.23;21.85;;;;;;;;;;5019715;28;20037;-71
2023/06/23 04:19:08;;;;;;;28.23;21.83;;;;;;;;;;5023559;28;20036;-71
2023/06/23 04:21:34;;;;;;;23.20;20.38;;;;;;;;;;5021926;28;20030;-70
2023/06/23 04:24:01;;;;;;;31.90;21.90;;;;;;;;;;5023719;28;20561;-71
2023/06/23 04:26:28;;;;;;;29.48;22.60;;;;;;;;;;5023475;28;20038;-70
2023/06/23 04:28:54;;;;;;;25.75;20.50;;;;;;;;;;5024236;28;20037;-71
2023/06/23 04:31:22;;;;;;;23.98;19.73;;;;;;;;;;5025319;28;20049;-70
2023/06/23 04:33:48;;;;;;;25.08;20.67;;;;;;;;;;5024316;28;20044;-71
2023/06/23 04:36:15;;;;;;;24.67;19.52;;;;;;;;;;5023026;28;20040;-71
2023/06/23 04:38:45;;;;;;;24.40;19.20;;;;;;;;;;5020825;28;20029;-71
2023/06/23 04:41:13;;;;;;;25.30;18.73;;;;;;;;;;5018471;28;20025;-72
2023/06/23 04:43:41;;;;;;;25.63;20.08;;;;;;;;;;5017357;28;20475;-70
2023/06/23 04:46:15;;;;;;;42.78;29.83;;;;;;;;;;5020335;28;20037;-90
2023/06/23 04:48:43;;;;;;;24.35;19.90;;;;;;;;;;5025724;28;20222;-88
2023/06/23 04:51:10;;;;;;;26.63;19.60;;;;;;;;;;5058308;28;20402;-72
2023/06/23 04:53:40;;;;;;;23.38;16.88;;;;;;;;;;5024502;28;20111;-73
2023/06/23 04:56:07;;;;;;;21.35;15.57;;;;;;;;;;5021162;28;20482;-71
2023/06/23 04:58:35;;;;;;;20.40;15.93;;;;;;;;;;5021825;28;20028;-73
2023/06/23 05:01:01;;;;;;;19.48;15.40;;;;;;;;;;5022032;28;20351;-72
2023/06/23 05:03:28;;;;;;;23.75;15.82;;;;;;;;;;5024097;28;20033;-72
2023/06/23 05:05:57;;;;;;;19.17;14.90;;;;;;;;;;5025780;28;20041;-72
2023/06/23 05:08:24;;;;;;;20.85;15.85;;;;;;;;;;5021333;28;20025;-72
2023/06/23 05:10:51;;;;;;;16.63;14.35;;;;;;;;;;5024450;28;20025;-72
2023/06/23 05:13:18;;;;;;;21.35;15.00;;;;;;;;;;5024975;28;20096;-72
2023/06/23 05:15:45;;;;;;;17.00;13.02;;;;;;;;;;5018827;28;20650;-73
2023/06/23 05:18:12;;;;;;;20.75;15.65;;;;;;;;;;5022893;28;20028;-72
2023/06/23 05:20:39;;;;;;;16.88;13.40;;;;;;;;;;5022759;28;20451;-72
2023/06/23 05:23:06;;;;;;;20.42;15.02;;;;;;;;;;5024523;28;20398;-72
2023/06/23 05:25:33;;;;;;;16.67;13.90;;;;;;;;;;5023230;28;20440;-73
2023/06/23 05:28:01;;;;;;;18.33;14.60;;;;;;;;;;5022178;28;20086;-72
2023/06/23 05:30:28;;;;;;;20.48;14.02;;;;;;;;;;5021742;28;20053;-72
2023/06/23 05:32:55;;;;;;;20.85;14.60;;;;;;;;;;5024871;28;20069;-72
2023/06/23 05:35:22;;;;;;;17.38;13.95;;;;;;;;;;5023629;28;20076;-72
2023/06/23 05:37:49;;;;;;;20.00;14.27;;;;;;;;;;5021901;28;20033;-72
2023/06/23 05:40:15;;;;;;;23.52;14.07;;;;;;;;;;5022125;28;20044;-72
2023/06/23 05:42:42;;;;;;;20.40;13.50;;;;;;;;;;5025516;28;20029;-72
2023/06/23 05:45:09;;;;;;;20.65;13.85;;;;;;;;;;5022360;28;22117;-73
2023/06/23 05:47:37;;;;;;;17.13;12.43;;;;;;;;;;5020583;28;20072;-72
2023/06/23 05:50:06;;;;;;;21.30;14.30;;;;;;;;;;5024705;28;20042;-72
2023/06/23 05:52:34;;;;;;;16.15;12.88;;;;;;;;;;5023743;28;20520;-72
2023/06/23 05:55:01;;;;;;;17.15;12.88;;;;;;;;;;5025014;28;20079;-72
2023/06/23 05:57:29;;;;;;;15.63;11.40;;;;;;;;;;5021343;28;20103;-72
2023/06/23 05:59:59;;;;;;;14.23;10.88;;;;;;;;;;5025058;28;20040;-72
2023/06/23 06:02:29;;;;;;;15.13;11.40;;;;;;;;;;5022820;28;20041;-72
2023/06/23 06:04:57;;;;;;;13.02;10.90;;;;;;;;;;5020849;28;20052;-72
2023/06/23 06:07:23;;;;;;;12.75;9.45;;;;;;;;;;5021193;28;20033;-72
2023/06/23 06:09:50;;;;;;;15.18;9.80;;;;;;;;;;5023356;28;20060;-72
2023/06/23 06:12:16;;;;;;;12.13;8.82;;;;;;;;;;5022340;28;20055;-72
2023/06/23 06:14:44;;;;;;;9.57;7.55;;;;;;;;;;5025357;28;20034;-72
2023/06/23 06:17:10;;;;;;;13.85;8.07;;;;;;;;;;5023009;28;20071;-72
2023/06/23 06:19:38;;;;;;;9.30;7.78;;;;;;;;;;5029323;28;20037;-72
2023/06/23 06:22:05;;;;;;;12.75;6.82;;;;;;;;;;5025677;28;20029;-72
2023/06/23 06:24:31;;;;;;;7.80;5.70;;;;;;;;;;5026780;28;20025;-71
2023/06/23 06:27:00;;;;;;;16.00;6.40;;;;;;;;;;5063246;28;20029;-72
2023/06/23 06:29:27;;;;;;;11.18;6.57;;;;;;;;;;5061908;28;20055;-72
2023/06/23 06:31:55;;;;;;;9.85;5.38;;;;;;;;;;5053465;28;20405;-72
2023/06/23 06:34:23;;;;;;;7.40;4.82;;;;;;;;;;5027462;28;20029;-76
2023/06/23 06:36:50;;;;;;;6.70;4.20;;;;;;;;;;5054490;28;20370;-73
2023/06/23 06:39:16;;;;;;;9.18;4.85;;;;;;;;;;5060714;28;20080;-74
2023/06/23 06:41:42;;;;;;;6.90;4.15;;;;;;;;;;5058263;28;20033;-73
2023/06/23 06:44:08;;;;;;;31.10;20.38;;;;;;;;;;5029812;28;20025;-76
2023/06/23 06:46:36;;;;;;;8.05;4.65;;;;;;;;;;5028587;28;20036;-76
2023/06/23 06:49:03;;;;;;;11.35;6.80;;;;;;;;;;5038691;28;20021;-76
2023/06/23 06:51:30;;;;;;;9.88;4.93;;;;;;;;;;5036559;28;20036;-72
2023/06/23 06:53:56;;;;;;;5.72;4.30;;;;;;;;;;5037355;28;20029;-77
2023/06/23 06:56:22;;;;;;;6.70;4.47;;;;;;;;;;5067155;28;20091;-81
2023/06/23 06:58:49;;;;;;;5.93;4.40;;;;;;;;;;5033722;28;20466;-80
2023/06/23 07:01:15;;;;;;;6.05;4.85;;;;;;;;;;5033912;28;20036;-71
2023/06/23 07:03:42;;;;;;;11.13;7.80;;;;;;;;;;5031234;28;20068;-70
2023/06/23 07:06:09;;;;;;;5.78;4.03;;;;;;;;;;5030348;28;20606;-72
2023/06/23 07:08:35;;;;;;;5.70;3.55;;;;;;;;;;5028708;28;20083;-75
2023/06/23 07:11:01;;;;;;;8.82;3.38;;;;;;;;;;5036895;28;20112;-70
2023/06/23 07:13:27;;;;;;;6.13;4.05;;;;;;;;;;5034100;28;20033;-69
2023/06/23 07:15:53;;;;;;;4.13;3.53;;;;;;;;;;5035444;28;20029;-70
2023/06/23 07:18:19;;;;;;;5.05;3.45;;;;;;;;;;5029376;28;20064;-70
2023/06/23 07:20:45;;;;;;;4.65;3.47;;;;;;;;;;5027394;28;21094;-75
2023/06/23 07:23:11;;;;;;;5.90;5.28;;;;;;;;;;5059614;28;20036;-77
2023/06/23 07:25:37;;;;;;;6.15;3.55;;;;;;;;;;5027338;28;20017;-75
2023/06/23 07:28:03;;;;;;;3.50;3.20;;;;;;;;;;5026465;28;20407;-74
2023/06/23 07:30:29;;;;;;;5.43;3.47;;;;;;;;;;5027610;28;20032;-77
2023/06/23 07:32:55;;;;;;;6.85;3.03;;;;;;;;;;5027604;28;20416;-76
2023/06/23 07:35:21;;;;;;;7.18;2.92;;;;;;;;;;5022974;28;20111;-70
2023/06/23 07:37:47;;;;;;;5.10;2.90;;;;;;;;;;5027971;28;20459;-73
2023/06/23 07:40:13;;;;;;;4.90;3.22;;;;;;;;;;5029054;28;20375;-74
2023/06/23 07:42:40;;;;;;;4.13;3.55;;;;;;;;;;5032295;28;20036;-74
2023/06/23 07:45:06;;;;;;;5.50;3.45;;;;;;;;;;5032767;28;20034;-74
2023/06/23 07:47:32;;;;;;;5.05;3.63;;;;;;;;;;5032454;28;20033;-73
2023/06/23 07:49:58;;;;;;;3.40;3.10;;;;;;;;;;5030487;28;20049;-74
2023/06/23 07:52:24;;;;;;;4.43;3.45;;;;;;;;;;5032689;28;20475;-74
2023/06/23 07:54:50;;;;;;;4.70;3.70;;;29.20;99.90;;;;;;5040879;28;20091;-74
2023/06/23 07:57:16;;;;;;;4.60;3.83;;;29.30;99.90;;;;;;5053098;28;20430;-73
2023/06/23 07:59:41;;;;;;;4.65;3.60;;;29.50;99.90;;;;;;5035088;28;20084;-71
2023/06/23 08:02:07;;;;;;;4.88;3.65;;;;;;;;;;5030638;28;20510;-72
2023/06/23 08:04:33;;;;;;;6.03;3.70;;;;;;;;;;5028272;28;20025;-71
2023/06/23 08:06:59;;;;;;;5.20;3.40;;;;;;;;;;5028730;28;20022;-71
2023/06/23 08:09:25;;;;;;;7.78;3.60;;;;;;;;;;5028093;28;20037;-71
2023/06/23 08:11:51;;;;;;;7.55;5.07;;;;;;;;;;5026382;28;20041;-72
2023/06/23 08:14:17;;;;;;;6.88;4.80;;;;;;;;;;5058514;28;20053;-72
2023/06/23 08:16:43;;;;;;;6.43;4.35;;;;;;;;;;5032050;28;20459;-71
2023/06/23 08:19:10;;;;;;;6.57;4.32;;;30.20;99.90;;;;;;5058137;28;20370;-72
2023/06/23 08:21:36;;;;;;;5.05;3.95;;;;;;;;;;5028400;28;20041;-74
2023/06/23 08:24:02;;;;;;;4.60;3.75;;;30.50;99.90;;;;;;5024412;28;20034;-73
2023/06/23 08:26:28;;;;;;;4.18;3.78;;;;;;;;;;5064163;28;20033;-74
2023/06/23 08:28:54;;;;;;;4.85;3.63;;;;;;;;;;5016487;28;20042;-74
2023/06/23 08:31:20;;;;;;;3.90;3.50;;;;;;;;;;5062595;28;20029;-73
2023/06/23 08:33:46;;;;;;;4.43;3.03;;;;;;;;;;5029695;28;20083;-74
2023/06/23 08:36:12;;;;;;;5.95;3.50;;;;;;;;;;5032021;28;20147;-74
2023/06/23 08:38:38;;;;;;;4.25;2.72;;;;;;;;;;5027709;28;20091;-74
2023/06/23 08:41:05;;;;;;;5.82;2.45;;;;;;;;;;5031005;28;20040;-74
2023/06/23 08:43:34;;;;;;;3.33;2.80;;;;;;;;;;5060470;28;20037;-74
2023/06/23 08:46:00;;;;;;;4.85;3.03;;;;;;;;;;5030457;28;20088;-73
2023/06/23 08:48:28;;;;;;;3.38;2.70;;;;;;;;;;5028783;28;20048;-73
2023/06/23 08:50:56;;;;;;;4.15;2.80;;;;;;;;;;5029066;28;20487;-74
2023/06/23 08:53:23;;;;;;;3.00;2.28;;;;;;;;;;5030090;28;20033;-74
2023/06/23 08:55:50;;;;;;;3.88;2.40;;;;;;;;;;5030035;28;20034;-74
2023/06/23 08:58:17;;;;;;;3.22;2.92;;;;;;;;;;5051625;28;20387;-73
2023/06/23 09:00:43;;;;;;;4.07;3.10;;;;;;;;;;5031955;28;20065;-74
2023/06/23 09:03:09;;;;;;;4.28;2.92;;;;;;;;;;5030089;28;20080;-73
2023/06/23 09:05:36;;;;;;;4.72;2.83;;;;;;;;;;5026549;28;20053;-74
2023/06/23 09:08:02;;;;;;;5.07;3.03;;;;;;;;;;5022185;28;20057;-73
2023/06/23 09:10:28;;;;;;;3.25;2.60;;;;;;;;;;5021955;28;20039;-74
2023/06/23 09:13:14;;;;;;;4.07;2.72;;;;;;;;;;5029477;28;20088;-73
2023/06/23 09:15:42;;;;;;;2.70;2.20;;;;;;;;;;5025955;28;20029;-73
2023/06/23 09:18:09;;;;;;;3.58;2.75;;;;;;;;;;5028434;28;20148;-74
2023/06/23 09:20:36;;;;;;;3.60;2.63;;;;;;;;;;5025936;28;20031;-73
2023/06/23 09:23:02;;;;;;;8.75;2.63;;;;;;;;;;5035694;28;20025;-73
2023/06/23 09:25:43;;;;;;;4.03;2.20;;;;;;;;;;5033729;28;20530;-74
2023/06/23 09:28:29;;;;;;;4.20;2.67;;;;;;;;;;5021168;28;20110;-74
2023/06/23 09:30:56;;;;;;;3.70;2.00;;;;;;;;;;5026811;28;20053;-74
2023/06/23 09:33:23;;;;;;;3.08;2.08;;;;;;;;;;5029784;28;20054;-73
2023/06/23 09:35:50;;;;;;;6.47;2.10;;;;;;;;;;5020002;28;20037;-74
2023/06/23 09:38:24;;;;;;;4.38;2.35;;;;;;;;;;5054748;28;20411;-73
2023/06/23 09:41:10;;;;;;;3.83;2.72;;;;;;;;;;5022403;28;20083;-72
2023/06/23 09:43:40;;;;;;;5.30;2.78;;;;;;;;;;5025692;28;20027;-71
2023/06/23 09:46:07;;;;;;;5.35;2.42;;;;;;;;;;5023260;28;20099;-72
2023/06/23 09:48:33;;;;;;;4.85;2.67;;;;;;;;;;5021946;28;20408;-71
2023/06/23 09:51:02;;;;;;;2.40;1.90;;;;;;;;;;5030105;28;20037;-71
2023/06/23 09:53:33;;;;;;;4.05;2.00;;;;;;;;;;5029316;28;20068;-73
2023/06/23 09:55:59;;;;;;;3.00;2.30;;;;;;;;;;5057016;28;20045;-77
2023/06/23 09:58:28;;;;;;;4.80;2.55;;;;;;;;;;5013278;28;20030;-75
2023/06/23 10:01:01;;;;;;;4.93;2.13;;;;;;;;;;5030471;28;20025;-78
2023/06/23 10:03:29;;;;;;;3.95;2.30;;;;;;;;;;5018433;28;20057;-83
2023/06/23 10:05:59;;;;;;;4.47;2.10;;;;;;;;;;5060128;28;20056;-85
2023/06/23 10:08:28;;;;;;;3.38;2.75;;;;;;;;;;5029850;28;20103;-88
2023/06/23 10:10:54;;;;;;;4.28;2.70;;;;;;;;;;5063397;28;20528;-81
2023/06/23 10:13:22;;;;;;;44.30;38.40;;;;;;;;;;5026340;28;20033;-82
2023/06/23 10:15:49;;;;;;;2.95;2.53;;;;;;;;;;5031483;28;20033;-86
2023/06/23 10:18:16;;;;;;;3.25;2.42;;;;;;;;;;5023857;28;20036;-85
2023/06/23 10:20:42;;;;;;;4.43;2.55;;;;;;;;;;5029958;28;20070;-84
2023/06/23 10:23:09;;;;;;;2.70;1.75;;;;;;;;;;5027731;28;20385;-79
2023/06/23 10:25:36;;;;;;;2.22;1.95;;;;;;;;;;5029676;28;20022;-77
2023/06/23 10:28:06;;;;;;;3.22;1.92;;;;;;;;;;5025033;28;20036;-81
2023/06/23 10:30:32;;;;;;;4.50;2.88;;;;;;;;;;5033365;28;20496;-78
2023/06/23 10:32:58;;;;;;;4.18;2.45;;;;;;;;;;5028913;28;20061;-80
2023/06/23 10:35:25;;;;;;;3.63;2.28;;;;;;;;;;5030496;28;20034;-82
2023/06/23 10:37:55;;;;;;;9.10;4.47;;;;;;;;;;5024984;28;20468;-79
2023/06/23 10:40:24;;;;;;;2.90;2.30;;;;;;;;;;5020160;28;20029;-83
2023/06/23 10:42:51;;;;;;;3.30;2.00;;;;;;;;;;5028125;28;20044;-79
2023/06/23 10:45:17;;;;;;;3.15;2.30;;;;;;;;;;5024528;28;20229;-82
2023/06/23 10:47:44;;;;;;;9.07;3.78;;;;;;;;;;5031502;28;20068;-80
2023/06/23 10:50:11;;;;;;;4.53;2.50;;;;;;;;;;5027578;28;20021;-73
2023/06/23 10:52:37;;;;;;;4.13;2.17;;;;;;;;;;5021076;28;20046;-73
2023/06/23 10:55:23;;;;;;;5.05;2.17;;;;;;;;;;5052827;28;20022;-72
2023/06/23 10:58:07;;;;;;;5.60;2.33;;;;;;;;;;5017599;28;21531;-73
2023/06/23 11:00:33;;;;;;;6.55;1.92;;;;;;;;;;5018252;28;20025;-73
2023/06/23 11:03:00;;;;;;;3.47;2.60;;;;;;;;;;5010825;28;20034;-73
2023/06/23 11:05:26;;;;;;;4.15;1.90;;;;;;;;;;5027856;28;20030;-73
2023/06/23 11:08:02;;;;;;;2.75;1.63;;;;;;;;;;5062927;28;20367;-73
2023/06/23 11:10:47;;;;;;;3.13;2.10;;;;;;;;;;5032592;28;20056;-74
2023/06/23 11:13:13;;;;;;;3.45;2.20;;;;;;;;;;5032439;28;20040;-73
2023/06/23 11:15:40;;;;;;;6.03;2.20;;;;;;;;;;5032101;28;20065;-73
2023/06/23 11:18:06;;;;;;;3.78;2.22;;;;;;;;;;5025907;28;20037;-73
2023/06/23 11:20:39;;;;;;;3.97;2.05;;;;;;;;;;5033158;28;20063;-72
2023/06/23 11:23:09;;;;;;;3.47;2.22;;;;;;;;;;5033725;28;20033;-72
2023/06/23 11:25:47;;;;;;;2.95;2.47;;;;;;;;;;5061150;28;20057;-73
2023/06/23 11:28:25;;;;;;;4.55;1.95;;;;;;;;;;5032122;28;20033;-73
2023/06/23 11:31:03;;;;;;;5.25;2.50;;;;;;;;;;5027455;28;20025;-73
2023/06/23 11:33:33;;;;;;;3.28;2.00;;;;;;;;;;5032433;28;20526;-72
2023/06/23 11:36:00;;;;;;;3.38;2.20;;;;;;;;;;5055563;28;20033;-73
2023/06/23 11:38:27;;;;;;;4.30;2.53;;;;;;;;;;5032077;28;20038;-73
2023/06/23 11:40:55;;;;;;;5.03;2.13;;;;;;;;;;5032408;28;20379;-72
2023/06/23 11:43:22;;;;;;;5.18;2.60;;;;;;;;;;5042315;28;20285;-73
2023/06/23 11:45:52;;;;;;;3.83;2.33;;;;;;;;;;5034972;28;20099;-73
2023/06/23 11:48:18;;;;;;;4.68;2.25;;;;;;;;;;5029787;28;20056;-72
2023/06/23 11:50:44;;;;;;;5.30;2.25;;;;;;;;;;5032855;28;20040;-72
2023/06/23 11:53:10;;;;;;;4.03;2.30;;;;;;;;;;5032986;28;20037;-73
2023/06/23 11:55:36;;;;;;;5.07;2.30;;;;;;;;;;5032650;28;20029;-72
2023/06/23 11:58:03;;;;;;;5.75;2.22;;;;;;;;;;5038598;28;20037;-73
2023/06/23 12:00:30;;;;;;;4.25;2.58;;;;;;;;;;5032696;28;20030;-73
2023/06/23 12:02:58;;;;;;;4.85;2.70;;;;;;;;;;5032342;28;20088;-73
2023/06/23 12:05:24;;;;;;;3.50;2.42;;;;;;;;;;5029818;28;20434;-73
2023/06/23 12:07:51;;;;;;;8.15;2.25;;;;;;;;;;5030682;28;20037;-74
2023/06/23 12:10:17;;;;;;;4.15;2.55;;;;;;;;;;5032384;28;20029;-73
2023/06/23 12:12:45;;;;;;;4.07;2.45;;;;;;;;;;5029286;28;20037;-74
2023/06/23 12:15:11;;;;;;;4.47;2.33;;;;;;;;;;5030515;28;20017;-74
2023/06/23 12:17:43;;;;;;;4.30;2.13;;;;;;;;;;5029514;28;20122;-73
2023/06/23 12:20:10;;;;;;;4.15;1.98;;;;;;;;;;5031449;28;20033;-73
2023/06/23 12:22:37;;;;;;;3.50;2.20;;;;;;;;;;5024654;28;20025;-73
2023/06/23 12:25:04;;;;;;;5.13;2.47;;;;;;;;;;5028414;28;20093;-72
2023/06/23 12:27:31;;;;;;;4.60;2.28;;;;;;;;;;5032106;28;20025;-72
2023/06/23 12:30:14;;;;;;;5.40;2.30;;;;;;;;;;5032442;28;20025;-72
2023/06/23 12:32:40;;;;;;;8.88;2.40;;;;;;;;;;5024236;28;20045;-72
2023/06/23 12:35:06;;;;;;;4.63;2.28;;;;;;;;;;5030572;28;20060;-73
2023/06/23 12:37:43;;;;;;;2.70;2.00;;;;;;;;;;5032135;28;20037;-73
2023/06/23 12:40:10;;;;;;;3.25;1.90;;;;;;;;;;5032323;28;20034;-73
2023/06/23 12:42:37;;;;;;;2.47;1.95;;;;;;;;;;5030725;28;20048;-72
2023/06/23 12:45:03;;;;;;;4.88;2.00;;;;;;;;;;5031024;28;20028;-73
2023/06/23 12:47:30;;;;;;;3.80;1.80;;;;;;;;;;5031840;28;20143;-73
2023/06/23 12:50:06;;;;;;;2.97;1.35;;;;;;;;;;5030908;28;20121;-73
2023/06/23 12:52:32;;;;;;;3.08;1.80;;;;;;;;;;5018170;28;20163;-73
2023/06/23 12:54:58;;;;;;;6.07;2.00;;;;;;;;;;5027662;28;20033;-73
2023/06/23 12:57:24;;;;;;;4.25;1.67;;;;;;;;;;5032206;28;20029;-73
2023/06/23 12:59:50;;;;;;;4.85;1.95;;;;;;;;;;5029721;28;20378;-73
2023/06/23 13:02:18;;;;;;;2.13;1.63;;;;;;;;;;5030363;28;20041;-73
2023/06/23 13:04:44;;;;;;;4.40;2.63;;;;;;;;;;5028698;28;20053;-73
2023/06/23 13:07:10;;;;;;;4.15;2.05;;;;;;;;;;5030274;28;20100;-73
2023/06/23 13:09:36;;;;;;;3.70;1.70;;;;;;;;;;5027929;28;20539;-73
2023/06/23 13:12:02;;;;;;;3.78;1.77;;;;;;;;;;5031073;28;20057;-73
2023/06/23 13:14:28;;;;;;;4.60;1.85;;;;;;;;;;5029384;28;20463;-72
2023/06/23 13:16:54;;;;;;;4.70;1.88;;;;;;;;;;5021385;28;20103;-72
2023/06/23 13:19:20;;;;;;;3.92;1.70;;;;;;;;;;5018353;28;20038;-72
2023/06/23 13:21:49;;;;;;;4.80;1.70;;;;;;;;;;5020086;28;20396;-73
2023/06/23 13:24:15;;;;;;;2.85;1.70;;;;;;;;;;5025738;28;20037;-72
2023/06/23 13:26:43;;;;;;;5.03;1.95;;;;;;;;;;5024653;28;20116;-75
2023/06/23 13:29:10;;;;;;;2.13;1.73;;;;;;;;;;5029254;28;20435;-73
2023/06/23 13:31:36;;;;;;;9.00;2.42;;;;;;;;;;5027619;28;20081;-72
2023/06/23 13:34:02;;;;;;;18.05;12.88;;;;;;;;;;5028029;28;20390;-75
2023/06/23 13:36:28;;;;;;;5.53;1.75;;;;;;;;;;5028433;28;20033;-73
2023/06/23 13:38:55;;;;;;;3.13;1.60;;;;;;;;;;5021947;28;20125;-73
2023/06/23 13:41:21;;;;;;;4.40;1.80;;;;;;;;;;5024639;28;20037;-73
2023/06/23 13:43:47;;;;;;;2.30;1.60;;;;;;;;;;5061744;28;20049;-77
2023/06/23 13:46:13;;;;;;;6.47;1.70;;;;;;;;;;5029551;28;20037;-79
2023/06/23 13:48:39;;;;;;;2.00;1.42;;;;;;;;;;5049099;28;20055;-79
2023/06/23 13:51:05;;;;;;;3.83;1.63;;;;;;;;;;5038674;28;20048;-79
2023/06/23 13:53:32;;;;;;;4.32;1.70;;;;;;;;;;5036411;28;20029;-78
2023/06/23 13:55:58;;;;;;;4.45;1.50;;;;;;;;;;5030191;28;20055;-79
2023/06/23 13:58:24;;;;;;;2.63;1.70;;;;;;;;;;5052740;28;20495;-75
2023/06/23 14:00:52;;;;;;;5.28;2.20;;;;;;;;;;5027368;28;20044;-76
2023/06/23 14:03:18;;;;;;;6.10;2.03;;;;;;;;;;5027696;28;20490;-75
2023/06/23 14:05:44;;;;;;;3.47;1.67;;;;;;;;;;5021703;28;20018;-78
2023/06/23 14:08:10;;;;;;;1.65;1.38;;;;;;;;;;5026084;28;20038;-77
2023/06/23 14:10:36;;;;;;;3.55;1.58;;;;;;;;;;5026370;28;20037;-78
2023/06/23 14:13:02;;;;;;;3.13;1.67;;;;;;;;;;5014547;28;20046;-77
2023/06/23 14:15:28;;;;;;;2.78;1.73;;;;;;;;;;5028255;28;20468;-77
2023/06/23 14:17:54;;;;;;;3.95;1.90;;;;;;;;;;5023422;28;20037;-79
2023/06/23 14:20:20;;;;;;;4.22;1.67;;;;;;;;;;5020761;28;20033;-73
2023/06/23 14:22:46;;;;;;;4.65;1.80;;;;;;;;;;5026516;28;20471;-74
2023/06/23 14:25:12;;;;;;;6.13;2.10;;;;;;;;;;5030140;28;20029;-74
2023/06/23 14:27:38;;;;;;;4.43;2.08;;;;;;;;;;5030017;28;20037;-74
2023/06/23 14:30:05;;;;;;;3.70;2.03;;;;;;;;;;5028217;28;20044;-75
2023/06/23 14:32:31;;;;;;;7.25;2.38;;;;;;;;;;5060183;28;20061;-74